sensor_id;sensor_type;location;lat;lon;timestamp;P1;durP1;ratioP1;P2;durP2;ratioP2
20859;SDS011;10590;48.154;11.514;2023-02-23T00:00:31;24.57;;;16.30;;
20859;SDS011;10590;48.154;11.514;2023-02-23T00:05:34;24.80;;;16.47;;
20859;SDS011;10590;48.154;11.514;2023-02-23T00:10:38;27.20;;;16.73;;
20859;SDS011;10590;48.154;11.514;2023-02-23T00:15:40;26.50;;;16.97;;
20859;SDS011;10590;48.154;11.514;2023-02-23T00:20:41;26.03;;;17.37;;
20859;SDS011;10590;48.154;11.514;2023-02-23T00:25:48;25.53;;;16.40;;
20859;SDS011;10590;48.154;11.514;2023-02-23T00:30:50;28.67;;;16.27;;
20859;SDS011;10590;48.154;11.514;2023-02-23T00:35:52;27.50;;;17.17;;
20859;SDS011;10590;48.154;11.514;2023-02-23T00:40:55;27.40;;;17.40;;
20859;SDS011;10590;48.154;11.514;2023-02-23T00:45:57;29.67;;;18.00;;
20859;SDS011;10590;48.154;11.514;2023-02-23T00:50:59;27.97;;;17.23;;
20859;SDS011;10590;48.154;11.514;2023-02-23T00:56:04;28.93;;;17.87;;
20859;SDS011;10590;48.154;11.514;2023-02-23T01:01:07;29.50;;;19.23;;
20859;SDS011;10590;48.154;11.514;2023-02-23T01:06:12;31.47;;;17.77;;
20859;SDS011;10590;48.154;11.514;2023-02-23T01:11:17;29.40;;;18.50;;
20859;SDS011;10590;48.154;11.514;2023-02-23T01:16:21;26.77;;;17.63;;
20859;SDS011;10590;48.154;11.514;2023-02-23T01:21:28;29.87;;;18.73;;
20859;SDS011;10590;48.154;11.514;2023-02-23T01:26:33;29.97;;;18.10;;
20859;SDS011;10590;48.154;11.514;2023-02-23T01:31:36;33.47;;;19.37;;
20859;SDS011;10590;48.154;11.514;2023-02-23T01:36:40;29.97;;;18.40;;
20859;SDS011;10590;48.154;11.514;2023-02-23T01:41:45;32.60;;;19.57;;
20859;SDS011;10590;48.154;11.514;2023-02-23T01:46:46;32.20;;;18.97;;
20859;SDS011;10590;48.154;11.514;2023-02-23T01:51:50;38.90;;;20.10;;
20859;SDS011;10590;48.154;11.514;2023-02-23T01:56:57;29.50;;;19.97;;
20859;SDS011;10590;48.154;11.514;2023-02-23T02:02:01;29.97;;;19.27;;
20859;SDS011;10590;48.154;11.514;2023-02-23T02:07:04;33.00;;;18.97;;
20859;SDS011;10590;48.154;11.514;2023-02-23T02:12:08;29.77;;;19.27;;
20859;SDS011;10590;48.154;11.514;2023-02-23T02:17:19;29.43;;;18.83;;
20859;SDS011;10590;48.154;11.514;2023-02-23T02:22:38;30.83;;;18.87;;
20859;SDS011;10590;48.154;11.514;2023-02-23T02:28:04;34.37;;;20.73;;
20859;SDS011;10590;48.154;11.514;2023-02-23T02:33:43;36.03;;;21.00;;
20859;SDS011;10590;48.154;11.514;2023-02-23T02:39:01;31.90;;;19.03;;
20859;SDS011;10590;48.154;11.514;2023-02-23T02:44:24;31.77;;;20.27;;
20859;SDS011;10590;48.154;11.514;2023-02-23T02:49:34;31.70;;;20.13;;
20859;SDS011;10590;48.154;11.514;2023-02-23T02:54:45;34.90;;;21.37;;
20859;SDS011;10590;48.154;11.514;2023-02-23T02:59:52;31.97;;;20.53;;
20859;SDS011;10590;48.154;11.514;2023-02-23T03:05:12;36.60;;;20.80;;
20859;SDS011;10590;48.154;11.514;2023-02-23T03:10:33;34.17;;;20.40;;
20859;SDS011;10590;48.154;11.514;2023-02-23T03:16:03;37.93;;;22.30;;
20859;SDS011;10590;48.154;11.514;2023-02-23T03:21:35;37.77;;;21.37;;
20859;SDS011;10590;48.154;11.514;2023-02-23T03:27:03;33.90;;;21.63;;
20859;SDS011;10590;48.154;11.514;2023-02-23T03:32:32;36.87;;;20.87;;
20859;SDS011;10590;48.154;11.514;2023-02-23T03:37:57;39.03;;;21.17;;
20859;SDS011;10590;48.154;11.514;2023-02-23T03:43:24;37.90;;;21.83;;
20859;SDS011;10590;48.154;11.514;2023-02-23T03:48:48;34.37;;;20.47;;
20859;SDS011;10590;48.154;11.514;2023-02-23T03:54:12;39.03;;;22.00;;
20859;SDS011;10590;48.154;11.514;2023-02-23T03:59:38;34.77;;;21.43;;
20859;SDS011;10590;48.154;11.514;2023-02-23T04:05:04;35.67;;;21.57;;
20859;SDS011;10590;48.154;11.514;2023-02-23T04:10:26;34.73;;;21.23;;
20859;SDS011;10590;48.154;11.514;2023-02-23T04:15:49;38.03;;;22.87;;
20859;SDS011;10590;48.154;11.514;2023-02-23T04:20:53;39.90;;;21.80;;
20859;SDS011;10590;48.154;11.514;2023-02-23T04:25:55;37.43;;;21.73;;
20859;SDS011;10590;48.154;11.514;2023-02-23T04:30:58;41.30;;;22.97;;
20859;SDS011;10590;48.154;11.514;2023-02-23T04:36:01;36.10;;;22.27;;
20859;SDS011;10590;48.154;11.514;2023-02-23T04:41:02;37.97;;;22.20;;
20859;SDS011;10590;48.154;11.514;2023-02-23T04:46:05;36.90;;;22.40;;
20859;SDS011;10590;48.154;11.514;2023-02-23T04:51:07;38.37;;;22.57;;
20859;SDS011;10590;48.154;11.514;2023-02-23T04:56:09;39.47;;;23.73;;
20859;SDS011;10590;48.154;11.514;2023-02-23T05:01:12;40.83;;;23.03;;
20859;SDS011;10590;48.154;11.514;2023-02-23T05:06:14;41.63;;;22.50;;
20859;SDS011;10590;48.154;11.514;2023-02-23T05:11:15;37.57;;;22.67;;
20859;SDS011;10590;48.154;11.514;2023-02-23T05:16:18;39.67;;;23.13;;
20859;SDS011;10590;48.154;11.514;2023-02-23T05:21:20;39.60;;;22.20;;
20859;SDS011;10590;48.154;11.514;2023-02-23T05:26:22;43.87;;;24.37;;
20859;SDS011;10590;48.154;11.514;2023-02-23T05:31:26;36.97;;;21.70;;
20859;SDS011;10590;48.154;11.514;2023-02-23T05:36:28;36.53;;;22.03;;
20859;SDS011;10590;48.154;11.514;2023-02-23T05:41:30;38.23;;;22.90;;
20859;SDS011;10590;48.154;11.514;2023-02-23T05:46:32;33.90;;;20.57;;
20859;SDS011;10590;48.154;11.514;2023-02-23T05:51:34;37.27;;;21.07;;
20859;SDS011;10590;48.154;11.514;2023-02-23T05:56:38;36.47;;;20.60;;
20859;SDS011;10590;48.154;11.514;2023-02-23T06:01:41;39.83;;;22.87;;
20859;SDS011;10590;48.154;11.514;2023-02-23T06:06:43;36.70;;;21.80;;
20859;SDS011;10590;48.154;11.514;2023-02-23T06:11:45;35.83;;;21.77;;
20859;SDS011;10590;48.154;11.514;2023-02-23T06:16:48;37.57;;;21.30;;
20859;SDS011;10590;48.154;11.514;2023-02-23T06:21:50;34.90;;;19.83;;
20859;SDS011;10590;48.154;11.514;2023-02-23T06:26:52;34.43;;;20.50;;
20859;SDS011;10590;48.154;11.514;2023-02-23T06:31:55;35.87;;;19.43;;
20859;SDS011;10590;48.154;11.514;2023-02-23T06:36:56;35.37;;;19.27;;
20859;SDS011;10590;48.154;11.514;2023-02-23T06:41:58;37.93;;;19.77;;
20859;SDS011;10590;48.154;11.514;2023-02-23T06:47:01;43.50;;;21.20;;
20859;SDS011;10590;48.154;11.514;2023-02-23T06:52:04;33.47;;;19.37;;
20859;SDS011;10590;48.154;11.514;2023-02-23T06:57:06;34.97;;;20.60;;
20859;SDS011;10590;48.154;11.514;2023-02-23T07:02:10;36.70;;;19.93;;
20859;SDS011;10590;48.154;11.514;2023-02-23T07:07:14;32.13;;;19.07;;
20859;SDS011;10590;48.154;11.514;2023-02-23T07:12:15;37.70;;;20.33;;
20859;SDS011;10590;48.154;11.514;2023-02-23T07:17:18;37.67;;;20.40;;
20859;SDS011;10590;48.154;11.514;2023-02-23T07:22:20;36.23;;;19.70;;
20859;SDS011;10590;48.154;11.514;2023-02-23T07:27:23;35.20;;;19.43;;
20859;SDS011;10590;48.154;11.514;2023-02-23T07:32:28;32.13;;;18.30;;
20859;SDS011;10590;48.154;11.514;2023-02-23T07:37:29;35.10;;;18.80;;
20859;SDS011;10590;48.154;11.514;2023-02-23T07:42:31;31.77;;;19.03;;
20859;SDS011;10590;48.154;11.514;2023-02-23T07:47:34;31.20;;;18.33;;
20859;SDS011;10590;48.154;11.514;2023-02-23T07:52:36;31.10;;;17.27;;
20859;SDS011;10590;48.154;11.514;2023-02-23T07:57:39;31.57;;;17.37;;
20859;SDS011;10590;48.154;11.514;2023-02-23T08:02:42;30.33;;;17.23;;
20859;SDS011;10590;48.154;11.514;2023-02-23T08:07:44;29.10;;;16.97;;
20859;SDS011;10590;48.154;11.514;2023-02-23T08:12:45;29.07;;;17.17;;
20859;SDS011;10590;48.154;11.514;2023-02-23T08:17:48;32.87;;;17.43;;
20859;SDS011;10590;48.154;11.514;2023-02-23T08:22:51;28.70;;;17.23;;
20859;SDS011;10590;48.154;11.514;2023-02-23T08:27:53;27.57;;;18.13;;
20859;SDS011;10590;48.154;11.514;2023-02-23T08:32:57;29.60;;;18.20;;
20859;SDS011;10590;48.154;11.514;2023-02-23T08:38:00;26.03;;;16.87;;
20859;SDS011;10590;48.154;11.514;2023-02-23T08:43:02;31.80;;;18.70;;
20859;SDS011;10590;48.154;11.514;2023-02-23T08:48:05;27.00;;;17.43;;
20859;SDS011;10590;48.154;11.514;2023-02-23T08:53:07;31.87;;;19.00;;
20859;SDS011;10590;48.154;11.514;2023-02-23T08:58:09;29.57;;;17.43;;
20859;SDS011;10590;48.154;11.514;2023-02-23T09:03:12;25.37;;;16.93;;
20859;SDS011;10590;48.154;11.514;2023-02-23T09:08:14;29.70;;;17.37;;
20859;SDS011;10590;48.154;11.514;2023-02-23T09:13:16;26.93;;;16.30;;
20859;SDS011;10590;48.154;11.514;2023-02-23T09:18:20;25.87;;;16.40;;
20859;SDS011;10590;48.154;11.514;2023-02-23T09:23:28;25.80;;;16.57;;
20859;SDS011;10590;48.154;11.514;2023-02-23T09:28:30;23.60;;;15.63;;
20859;SDS011;10590;48.154;11.514;2023-02-23T09:33:34;23.37;;;14.70;;
20859;SDS011;10590;48.154;11.514;2023-02-23T09:38:36;21.97;;;14.40;;
20859;SDS011;10590;48.154;11.514;2023-02-23T09:43:39;21.30;;;14.60;;
20859;SDS011;10590;48.154;11.514;2023-02-23T09:48:48;19.53;;;13.57;;
20859;SDS011;10590;48.154;11.514;2023-02-23T09:53:51;21.27;;;13.47;;
20859;SDS011;10590;48.154;11.514;2023-02-23T09:58:54;23.23;;;13.70;;
20859;SDS011;10590;48.154;11.514;2023-02-23T10:03:58;21.83;;;13.27;;
20859;SDS011;10590;48.154;11.514;2023-02-23T10:09:10;15.53;;;11.57;;
20859;SDS011;10590;48.154;11.514;2023-02-23T10:14:21;18.70;;;11.20;;
20859;SDS011;10590;48.154;11.514;2023-02-23T10:19:38;14.57;;;9.97;;
20859;SDS011;10590;48.154;11.514;2023-02-23T10:24:47;13.60;;;9.50;;
20859;SDS011;10590;48.154;11.514;2023-02-23T10:29:53;18.30;;;10.13;;
20859;SDS011;10590;48.154;11.514;2023-02-23T10:34:58;15.60;;;10.30;;
20859;SDS011;10590;48.154;11.514;2023-02-23T10:39:59;14.90;;;9.67;;
20859;SDS011;10590;48.154;11.514;2023-02-23T10:45:05;15.47;;;10.13;;
20859;SDS011;10590;48.154;11.514;2023-02-23T10:50:14;15.40;;;10.17;;
20859;SDS011;10590;48.154;11.514;2023-02-23T10:55:20;16.37;;;10.63;;
20859;SDS011;10590;48.154;11.514;2023-02-23T11:00:25;14.07;;;9.93;;
20859;SDS011;10590;48.154;11.514;2023-02-23T11:05:35;15.60;;;11.13;;
20859;SDS011;10590;48.154;11.514;2023-02-23T11:10:43;12.97;;;9.77;;
20859;SDS011;10590;48.154;11.514;2023-02-23T11:16:13;15.27;;;10.07;;
20859;SDS011;10590;48.154;11.514;2023-02-23T11:21:20;18.37;;;11.07;;
20859;SDS011;10590;48.154;11.514;2023-02-23T11:26:27;18.57;;;11.20;;
20859;SDS011;10590;48.154;11.514;2023-02-23T11:31:33;16.57;;;11.30;;
20859;SDS011;10590;48.154;11.514;2023-02-23T11:36:39;15.20;;;10.43;;
20859;SDS011;10590;48.154;11.514;2023-02-23T11:41:42;15.90;;;10.33;;
20859;SDS011;10590;48.154;11.514;2023-02-23T11:46:44;16.30;;;10.43;;
20859;SDS011;10590;48.154;11.514;2023-02-23T11:51:47;13.53;;;9.03;;
20859;SDS011;10590;48.154;11.514;2023-02-23T11:56:50;14.67;;;9.47;;
20859;SDS011;10590;48.154;11.514;2023-02-23T12:01:55;12.80;;;6.90;;
20859;SDS011;10590;48.154;11.514;2023-02-23T12:12:52;9.27;;;6.47;;
20859;SDS011;10590;48.154;11.514;2023-02-23T12:18:04;6.80;;;6.10;;
20859;SDS011;10590;48.154;11.514;2023-02-23T12:23:16;11.13;;;7.63;;
20859;SDS011;10590;48.154;11.514;2023-02-23T12:28:24;12.37;;;8.40;;
20859;SDS011;10590;48.154;11.514;2023-02-23T12:33:34;13.00;;;9.27;;
20859;SDS011;10590;48.154;11.514;2023-02-23T12:38:45;10.70;;;7.90;;
20859;SDS011;10590;48.154;11.514;2023-02-23T12:43:52;11.10;;;7.50;;
20859;SDS011;10590;48.154;11.514;2023-02-23T12:49:02;12.33;;;7.77;;
20859;SDS011;10590;48.154;11.514;2023-02-23T12:54:08;9.90;;;7.10;;
20859;SDS011;10590;48.154;11.514;2023-02-23T12:59:18;14.07;;;6.27;;
20859;SDS011;10590;48.154;11.514;2023-02-23T13:04:46;9.03;;;6.20;;
20859;SDS011;10590;48.154;11.514;2023-02-23T13:10:04;7.17;;;5.73;;
20859;SDS011;10590;48.154;11.514;2023-02-23T13:15:26;8.23;;;6.00;;
20859;SDS011;10590;48.154;11.514;2023-02-23T13:20:40;8.67;;;4.77;;
20859;SDS011;10590;48.154;11.514;2023-02-23T13:25:50;7.90;;;4.57;;
20859;SDS011;10590;48.154;11.514;2023-02-23T13:30:59;6.53;;;4.33;;
20859;SDS011;10590;48.154;11.514;2023-02-23T13:36:01;5.23;;;4.23;;
20859;SDS011;10590;48.154;11.514;2023-02-23T13:41:07;5.63;;;3.57;;
20859;SDS011;10590;48.154;11.514;2023-02-23T13:46:23;5.03;;;3.13;;
20859;SDS011;10590;48.154;11.514;2023-02-23T13:51:33;3.40;;;3.00;;
20859;SDS011;10590;48.154;11.514;2023-02-23T13:56:41;5.93;;;3.17;;
20859;SDS011;10590;48.154;11.514;2023-02-23T14:01:45;4.37;;;2.60;;
20859;SDS011;10590;48.154;11.514;2023-02-23T14:06:50;4.93;;;3.43;;
20859;SDS011;10590;48.154;11.514;2023-02-23T14:12:00;4.20;;;2.80;;
20859;SDS011;10590;48.154;11.514;2023-02-23T14:17:08;4.20;;;3.20;;
20859;SDS011;10590;48.154;11.514;2023-02-23T14:22:24;5.20;;;3.00;;
20859;SDS011;10590;48.154;11.514;2023-02-23T14:27:34;5.93;;;3.37;;
20859;SDS011;10590;48.154;11.514;2023-02-23T14:32:43;5.23;;;3.37;;
20859;SDS011;10590;48.154;11.514;2023-02-23T14:37:53;6.40;;;3.90;;
20859;SDS011;10590;48.154;11.514;2023-02-23T14:42:59;6.70;;;3.43;;
20859;SDS011;10590;48.154;11.514;2023-02-23T14:48:04;4.37;;;3.30;;
20859;SDS011;10590;48.154;11.514;2023-02-23T14:53:12;5.33;;;3.27;;
20859;SDS011;10590;48.154;11.514;2023-02-23T14:58:22;4.90;;;3.47;;
20859;SDS011;10590;48.154;11.514;2023-02-23T15:03:26;5.10;;;3.77;;
20859;SDS011;10590;48.154;11.514;2023-02-23T15:08:29;5.60;;;3.47;;
20859;SDS011;10590;48.154;11.514;2023-02-23T15:13:33;5.13;;;3.20;;
20859;SDS011;10590;48.154;11.514;2023-02-23T15:18:37;4.60;;;3.30;;
20859;SDS011;10590;48.154;11.514;2023-02-23T15:23:43;6.97;;;4.53;;
20859;SDS011;10590;48.154;11.514;2023-02-23T15:28:47;7.20;;;4.17;;
20859;SDS011;10590;48.154;11.514;2023-02-23T15:33:49;7.23;;;4.27;;
20859;SDS011;10590;48.154;11.514;2023-02-23T15:38:51;7.37;;;4.30;;
20859;SDS011;10590;48.154;11.514;2023-02-23T15:44:00;6.83;;;4.73;;
20859;SDS011;10590;48.154;11.514;2023-02-23T15:49:07;5.90;;;4.17;;
20859;SDS011;10590;48.154;11.514;2023-02-23T15:54:15;5.00;;;4.10;;
20859;SDS011;10590;48.154;11.514;2023-02-23T15:59:24;7.23;;;3.97;;
20859;SDS011;10590;48.154;11.514;2023-02-23T16:04:30;9.47;;;5.07;;
20859;SDS011;10590;48.154;11.514;2023-02-23T16:09:36;7.37;;;4.57;;
20859;SDS011;10590;48.154;11.514;2023-02-23T16:14:43;7.67;;;5.17;;
20859;SDS011;10590;48.154;11.514;2023-02-23T16:19:46;8.43;;;4.90;;
20859;SDS011;10590;48.154;11.514;2023-02-23T16:24:50;9.13;;;5.13;;
20859;SDS011;10590;48.154;11.514;2023-02-23T16:30:04;7.57;;;5.07;;
20859;SDS011;10590;48.154;11.514;2023-02-23T16:35:19;7.83;;;5.07;;
20859;SDS011;10590;48.154;11.514;2023-02-23T16:40:20;9.10;;;5.60;;
20859;SDS011;10590;48.154;11.514;2023-02-23T16:45:24;6.83;;;4.77;;
20859;SDS011;10590;48.154;11.514;2023-02-23T16:50:28;7.17;;;5.03;;
20859;SDS011;10590;48.154;11.514;2023-02-23T16:55:32;9.77;;;5.13;;
20859;SDS011;10590;48.154;11.514;2023-02-23T17:00:39;7.80;;;4.83;;
20859;SDS011;10590;48.154;11.514;2023-02-23T17:05:41;10.27;;;5.60;;
20859;SDS011;10590;48.154;11.514;2023-02-23T17:10:45;6.50;;;5.67;;
20859;SDS011;10590;48.154;11.514;2023-02-23T17:15:51;9.27;;;6.17;;
20859;SDS011;10590;48.154;11.514;2023-02-23T17:20:56;12.10;;;6.50;;
20859;SDS011;10590;48.154;11.514;2023-02-23T17:25:59;8.47;;;6.03;;
20859;SDS011;10590;48.154;11.514;2023-02-23T17:31:04;9.27;;;6.17;;
20859;SDS011;10590;48.154;11.514;2023-02-23T17:36:07;8.67;;;6.60;;
20859;SDS011;10590;48.154;11.514;2023-02-23T17:41:12;11.77;;;6.70;;
20859;SDS011;10590;48.154;11.514;2023-02-23T17:46:17;11.87;;;6.73;;
20859;SDS011;10590;48.154;11.514;2023-02-23T17:51:19;15.40;;;7.17;;
20859;SDS011;10590;48.154;11.514;2023-02-23T17:56:20;12.97;;;7.33;;
20859;SDS011;10590;48.154;11.514;2023-02-23T18:01:24;10.87;;;7.37;;
20859;SDS011;10590;48.154;11.514;2023-02-23T18:06:26;13.70;;;8.40;;
20859;SDS011;10590;48.154;11.514;2023-02-23T18:11:29;18.33;;;8.93;;
20859;SDS011;10590;48.154;11.514;2023-02-23T18:16:32;20.13;;;8.10;;
20859;SDS011;10590;48.154;11.514;2023-02-23T18:21:33;16.53;;;8.90;;
20859;SDS011;10590;48.154;11.514;2023-02-23T18:26:39;17.87;;;8.53;;
20859;SDS011;10590;48.154;11.514;2023-02-23T18:31:42;21.97;;;9.10;;
20859;SDS011;10590;48.154;11.514;2023-02-23T18:36:45;18.90;;;8.17;;
20859;SDS011;10590;48.154;11.514;2023-02-23T18:41:47;19.33;;;11.03;;
20859;SDS011;10590;48.154;11.514;2023-02-23T18:46:50;19.30;;;10.53;;
20859;SDS011;10590;48.154;11.514;2023-02-23T18:51:57;17.67;;;9.67;;
20859;SDS011;10590;48.154;11.514;2023-02-23T18:56:59;20.63;;;10.17;;
20859;SDS011;10590;48.154;11.514;2023-02-23T19:02:03;23.13;;;11.73;;
20859;SDS011;10590;48.154;11.514;2023-02-23T19:07:04;17.70;;;12.00;;
20859;SDS011;10590;48.154;11.514;2023-02-23T19:12:06;18.33;;;11.83;;
20859;SDS011;10590;48.154;11.514;2023-02-23T19:17:09;21.77;;;12.10;;
20859;SDS011;10590;48.154;11.514;2023-02-23T19:22:11;21.37;;;10.70;;
20859;SDS011;10590;48.154;11.514;2023-02-23T19:27:12;23.30;;;12.47;;
20859;SDS011;10590;48.154;11.514;2023-02-23T19:32:16;22.00;;;12.30;;
20859;SDS011;10590;48.154;11.514;2023-02-23T19:37:17;20.97;;;12.57;;
20859;SDS011;10590;48.154;11.514;2023-02-23T19:42:19;23.70;;;14.07;;
20859;SDS011;10590;48.154;11.514;2023-02-23T19:47:22;26.17;;;14.30;;
20859;SDS011;10590;48.154;11.514;2023-02-23T19:52:24;31.53;;;15.07;;
20859;SDS011;10590;48.154;11.514;2023-02-23T19:57:27;30.30;;;17.40;;
20859;SDS011;10590;48.154;11.514;2023-02-23T20:02:30;32.90;;;18.77;;
20859;SDS011;10590;48.154;11.514;2023-02-23T20:07:32;30.67;;;19.07;;
20859;SDS011;10590;48.154;11.514;2023-02-23T20:12:34;35.97;;;21.33;;
20859;SDS011;10590;48.154;11.514;2023-02-23T20:17:37;31.13;;;19.90;;
20859;SDS011;10590;48.154;11.514;2023-02-23T20:22:39;32.90;;;20.13;;
20859;SDS011;10590;48.154;11.514;2023-02-23T20:27:42;33.30;;;19.20;;
20859;SDS011;10590;48.154;11.514;2023-02-23T20:32:45;32.20;;;19.00;;
20859;SDS011;10590;48.154;11.514;2023-02-23T20:37:47;33.23;;;20.37;;
20859;SDS011;10590;48.154;11.514;2023-02-23T20:42:49;34.40;;;19.70;;
20859;SDS011;10590;48.154;11.514;2023-02-23T20:47:54;31.53;;;17.60;;
20859;SDS011;10590;48.154;11.514;2023-02-23T20:52:56;33.00;;;17.93;;
20859;SDS011;10590;48.154;11.514;2023-02-23T20:57:58;27.03;;;17.37;;
20859;SDS011;10590;48.154;11.514;2023-02-23T21:03:02;31.03;;;18.07;;
20859;SDS011;10590;48.154;11.514;2023-02-23T21:08:04;28.10;;;17.40;;
20859;SDS011;10590;48.154;11.514;2023-02-23T21:13:07;30.87;;;18.17;;
20859;SDS011;10590;48.154;11.514;2023-02-23T21:18:12;27.67;;;16.53;;
20859;SDS011;10590;48.154;11.514;2023-02-23T21:23:14;26.60;;;16.47;;
20859;SDS011;10590;48.154;11.514;2023-02-23T21:28:19;27.70;;;17.23;;
20859;SDS011;10590;48.154;11.514;2023-02-23T21:33:22;24.67;;;16.27;;
20859;SDS011;10590;48.154;11.514;2023-02-23T21:38:24;25.67;;;15.60;;
20859;SDS011;10590;48.154;11.514;2023-02-23T21:43:26;26.37;;;15.40;;
20859;SDS011;10590;48.154;11.514;2023-02-23T21:48:29;22.20;;;14.83;;
20859;SDS011;10590;48.154;11.514;2023-02-23T21:53:33;22.13;;;14.27;;
20859;SDS011;10590;48.154;11.514;2023-02-23T21:58:36;20.97;;;13.63;;
20859;SDS011;10590;48.154;11.514;2023-02-23T22:03:40;20.83;;;13.90;;
20859;SDS011;10590;48.154;11.514;2023-02-23T22:08:44;24.77;;;13.80;;
20859;SDS011;10590;48.154;11.514;2023-02-23T22:13:47;20.70;;;13.10;;
20859;SDS011;10590;48.154;11.514;2023-02-23T22:18:51;21.13;;;13.17;;
20859;SDS011;10590;48.154;11.514;2023-02-23T22:23:53;20.53;;;13.73;;
20859;SDS011;10590;48.154;11.514;2023-02-23T22:28:55;19.50;;;12.80;;
20859;SDS011;10590;48.154;11.514;2023-02-23T22:33:58;26.43;;;14.60;;
20859;SDS011;10590;48.154;11.514;2023-02-23T22:38:59;21.33;;;13.93;;
20859;SDS011;10590;48.154;11.514;2023-02-23T22:44:01;23.87;;;14.70;;
20859;SDS011;10590;48.154;11.514;2023-02-23T22:49:04;26.97;;;14.80;;
20859;SDS011;10590;48.154;11.514;2023-02-23T22:54:06;20.77;;;13.67;;
20859;SDS011;10590;48.154;11.514;2023-02-23T22:59:08;22.53;;;13.20;;
20859;SDS011;10590;48.154;11.514;2023-02-23T23:04:11;17.60;;;12.27;;
20859;SDS011;10590;48.154;11.514;2023-02-23T23:09:13;20.57;;;13.70;;
20859;SDS011;10590;48.154;11.514;2023-02-23T23:14:17;20.43;;;13.07;;
20859;SDS011;10590;48.154;11.514;2023-02-23T23:19:21;23.23;;;13.03;;
20859;SDS011;10590;48.154;11.514;2023-02-23T23:24:23;22.50;;;12.60;;
20859;SDS011;10590;48.154;11.514;2023-02-23T23:29:26;17.30;;;11.93;;
20859;SDS011;10590;48.154;11.514;2023-02-23T23:34:31;19.03;;;11.60;;
20859;SDS011;10590;48.154;11.514;2023-02-23T23:39:33;16.03;;;11.40;;
20859;SDS011;10590;48.154;11.514;2023-02-23T23:44:35;16.60;;;10.87;;
20859;SDS011;10590;48.154;11.514;2023-02-23T23:49:38;18.67;;;10.70;;
20859;SDS011;10590;48.154;11.514;2023-02-23T23:54:40;15.73;;;9.30;;
20859;SDS011;10590;48.154;11.514;2023-02-23T23:59:42;14.73;;;10.10;;
